sensor_id;sensor_type;location;lat;lon;timestamp;pressure;altitude;pressure_sealevel;temperature;humidity
16595;BME280;8410;52.532;13.336;2023-04-26T00:00:15;100938.97;;;8.23;66.17
16595;BME280;8410;52.532;13.336;2023-04-26T00:02:43;100929.50;;;8.91;65.58
16595;BME280;8410;52.532;13.336;2023-04-26T00:05:10;100932.31;;;8.29;66.37
16595;BME280;8410;52.532;13.336;2023-04-26T00:07:39;100930.66;;;8.68;65.58
16595;BME280;8410;52.532;13.336;2023-04-26T00:10:08;100926.81;;;8.85;64.23
16595;BME280;8410;52.532;13.336;2023-04-26T00:12:36;100936.41;;;8.94;64.43
16595;BME280;8410;52.532;13.336;2023-04-26T00:15:04;100933.09;;;8.99;64.30
16595;BME280;8410;52.532;13.336;2023-04-26T00:17:34;100934.50;;;8.85;64.60
16595;BME280;8410;52.532;13.336;2023-04-26T00:20:01;100936.22;;;8.50;65.54
16595;BME280;8410;52.532;13.336;2023-04-26T00:22:31;100939.53;;;8.82;65.45
16595;BME280;8410;52.532;13.336;2023-04-26T00:24:59;100937.41;;;8.63;64.62
16595;BME280;8410;52.532;13.336;2023-04-26T00:27:27;100937.31;;;8.59;65.79
16595;BME280;8410;52.532;13.336;2023-04-26T00:29:54;100936.28;;;8.88;64.80
16595;BME280;8410;52.532;13.336;2023-04-26T00:32:22;100932.91;;;8.54;64.65
16595;BME280;8410;52.532;13.336;2023-04-26T00:34:51;100938.59;;;7.76;66.77
16595;BME280;8410;52.532;13.336;2023-04-26T00:37:18;100938.44;;;8.36;67.90
16595;BME280;8410;52.532;13.336;2023-04-26T00:39:46;100933.78;;;8.54;66.00
16595;BME280;8410;52.532;13.336;2023-04-26T00:42:14;100937.69;;;8.75;65.68
16595;BME280;8410;52.532;13.336;2023-04-26T00:44:41;100940.72;;;8.58;65.41
16595;BME280;8410;52.532;13.336;2023-04-26T00:47:09;100941.00;;;8.36;65.98
16595;BME280;8410;52.532;13.336;2023-04-26T00:49:36;100939.41;;;8.74;65.20
16595;BME280;8410;52.532;13.336;2023-04-26T00:52:05;100937.38;;;8.28;66.76
16595;BME280;8410;52.532;13.336;2023-04-26T00:54:33;100935.06;;;8.73;66.74
16595;BME280;8410;52.532;13.336;2023-04-26T00:57:01;100935.47;;;8.19;67.86
16595;BME280;8410;52.532;13.336;2023-04-26T00:59:50;100942.09;;;8.11;68.99
16595;BME280;8410;52.532;13.336;2023-04-26T01:02:17;100944.16;;;8.26;68.02
16595;BME280;8410;52.532;13.336;2023-04-26T01:04:45;100940.66;;;8.55;67.40
16595;BME280;8410;52.532;13.336;2023-04-26T01:07:14;100945.50;;;8.43;66.84
16595;BME280;8410;52.532;13.336;2023-04-26T01:09:43;100942.69;;;8.69;66.50
16595;BME280;8410;52.532;13.336;2023-04-26T01:12:10;100944.34;;;8.67;66.06
16595;BME280;8410;52.532;13.336;2023-04-26T01:14:39;100938.63;;;8.42;67.19
16595;BME280;8410;52.532;13.336;2023-04-26T01:17:07;100945.94;;;8.61;66.60
16595;BME280;8410;52.532;13.336;2023-04-26T01:19:34;100941.13;;;8.75;65.95
16595;BME280;8410;52.532;13.336;2023-04-26T01:22:03;100952.03;;;8.33;67.31
16595;BME280;8410;52.532;13.336;2023-04-26T01:24:34;100957.81;;;8.58;66.61
16595;BME280;8410;52.532;13.336;2023-04-26T01:27:02;100956.63;;;7.79;69.10
16595;BME280;8410;52.532;13.336;2023-04-26T01:29:30;100953.75;;;8.33;67.15
16595;BME280;8410;52.532;13.336;2023-04-26T01:31:58;100960.84;;;8.10;67.77
16595;BME280;8410;52.532;13.336;2023-04-26T01:34:25;100968.66;;;7.51;70.25
16595;BME280;8410;52.532;13.336;2023-04-26T01:36:53;100962.03;;;8.23;68.05
16595;BME280;8410;52.532;13.336;2023-04-26T01:39:21;100969.19;;;8.34;68.00
16595;BME280;8410;52.532;13.336;2023-04-26T01:41:50;100973.56;;;8.05;68.49
16595;BME280;8410;52.532;13.336;2023-04-26T01:44:17;100972.53;;;8.32;67.63
16595;BME280;8410;52.532;13.336;2023-04-26T01:46:45;100969.66;;;7.88;68.15
16595;BME280;8410;52.532;13.336;2023-04-26T01:49:12;100973.13;;;8.22;68.16
16595;BME280;8410;52.532;13.336;2023-04-26T01:51:40;100974.44;;;8.06;68.14
16595;BME280;8410;52.532;13.336;2023-04-26T01:54:08;100970.50;;;8.18;68.68
16595;BME280;8410;52.532;13.336;2023-04-26T01:56:36;100972.94;;;8.14;69.61
16595;BME280;8410;52.532;13.336;2023-04-26T01:59:04;100969.00;;;8.27;68.34
16595;BME280;8410;52.532;13.336;2023-04-26T02:01:32;100972.50;;;7.97;68.58
16595;BME280;8410;52.532;13.336;2023-04-26T02:03:59;100975.22;;;8.03;69.23
16595;BME280;8410;52.532;13.336;2023-04-26T02:06:27;100974.03;;;7.60;69.87
16595;BME280;8410;52.532;13.336;2023-04-26T02:08:55;100979.41;;;7.69;70.25
16595;BME280;8410;52.532;13.336;2023-04-26T02:11:22;100979.03;;;7.86;69.79
16595;BME280;8410;52.532;13.336;2023-04-26T02:13:52;100976.44;;;8.17;68.07
16595;BME280;8410;52.532;13.336;2023-04-26T02:16:21;100969.00;;;8.28;68.56
16595;BME280;8410;52.532;13.336;2023-04-26T02:18:49;100970.72;;;8.28;67.96
16595;BME280;8410;52.532;13.336;2023-04-26T02:21:16;100975.28;;;8.06;69.06
16595;BME280;8410;52.532;13.336;2023-04-26T02:23:44;100974.50;;;8.09;68.00
16595;BME280;8410;52.532;13.336;2023-04-26T02:26:12;100976.53;;;8.21;69.12
16595;BME280;8410;52.532;13.336;2023-04-26T02:28:39;100970.53;;;8.20;68.69
16595;BME280;8410;52.532;13.336;2023-04-26T02:31:07;100975.34;;;7.76;69.46
16595;BME280;8410;52.532;13.336;2023-04-26T02:33:36;100968.53;;;8.08;67.79
16595;BME280;8410;52.532;13.336;2023-04-26T02:36:04;100971.53;;;7.62;69.85
16595;BME280;8410;52.532;13.336;2023-04-26T02:38:32;100970.66;;;7.91;69.92
16595;BME280;8410;52.532;13.336;2023-04-26T02:41:01;100967.94;;;7.87;68.61
16595;BME280;8410;52.532;13.336;2023-04-26T02:43:29;100975.63;;;6.98;71.99
16595;BME280;8410;52.532;13.336;2023-04-26T02:45:57;100973.66;;;7.77;69.92
16595;BME280;8410;52.532;13.336;2023-04-26T02:48:26;100964.97;;;8.03;70.16
16595;BME280;8410;52.532;13.336;2023-04-26T02:50:55;100971.69;;;7.68;70.14
16595;BME280;8410;52.532;13.336;2023-04-26T02:53:23;100980.47;;;7.17;71.87
16595;BME280;8410;52.532;13.336;2023-04-26T02:55:50;100974.50;;;7.17;72.04
16595;BME280;8410;52.532;13.336;2023-04-26T02:58:17;100965.19;;;7.49;71.92
16595;BME280;8410;52.532;13.336;2023-04-26T03:00:45;100962.88;;;7.58;70.80
16595;BME280;8410;52.532;13.336;2023-04-26T03:03:13;100969.91;;;7.65;69.87
16595;BME280;8410;52.532;13.336;2023-04-26T03:05:42;100964.63;;;7.91;69.42
16595;BME280;8410;52.532;13.336;2023-04-26T03:08:10;100968.75;;;8.17;69.11
16595;BME280;8410;52.532;13.336;2023-04-26T03:10:38;100978.13;;;7.84;70.13
16595;BME280;8410;52.532;13.336;2023-04-26T03:13:05;100975.22;;;7.71;69.61
16595;BME280;8410;52.532;13.336;2023-04-26T03:15:33;100977.94;;;7.47;71.52
16595;BME280;8410;52.532;13.336;2023-04-26T03:18:00;100972.81;;;7.78;70.54
16595;BME280;8410;52.532;13.336;2023-04-26T03:20:28;100981.25;;;7.73;69.80
16595;BME280;8410;52.532;13.336;2023-04-26T03:22:55;100982.81;;;7.38;72.51
16595;BME280;8410;52.532;13.336;2023-04-26T03:25:24;100978.13;;;7.54;70.87
16595;BME280;8410;52.532;13.336;2023-04-26T03:27:51;100979.50;;;7.42;72.03
16595;BME280;8410;52.532;13.336;2023-04-26T03:30:19;100987.41;;;7.50;70.96
16595;BME280;8410;52.532;13.336;2023-04-26T03:32:46;100984.53;;;7.69;70.52
16595;BME280;8410;52.532;13.336;2023-04-26T03:35:14;100993.75;;;7.33;72.11
16595;BME280;8410;52.532;13.336;2023-04-26T03:37:41;100992.44;;;7.77;70.56
16595;BME280;8410;52.532;13.336;2023-04-26T03:40:09;100988.47;;;7.87;70.64
16595;BME280;8410;52.532;13.336;2023-04-26T03:42:38;100992.59;;;7.51;71.10
16595;BME280;8410;52.532;13.336;2023-04-26T03:45:07;100990.72;;;7.46;72.15
16595;BME280;8410;52.532;13.336;2023-04-26T03:47:34;100996.81;;;7.49;69.82
16595;BME280;8410;52.532;13.336;2023-04-26T03:50:02;100998.72;;;7.87;69.31
16595;BME280;8410;52.532;13.336;2023-04-26T03:52:29;100987.59;;;7.86;69.28
16595;BME280;8410;52.532;13.336;2023-04-26T03:54:57;100995.06;;;7.48;72.28
16595;BME280;8410;52.532;13.336;2023-04-26T03:57:24;101002.28;;;7.62;70.30
16595;BME280;8410;52.532;13.336;2023-04-26T03:59:53;100989.06;;;7.78;71.07
16595;BME280;8410;52.532;13.336;2023-04-26T04:02:21;101000.59;;;7.62;69.44
16595;BME280;8410;52.532;13.336;2023-04-26T04:04:49;101005.97;;;7.43;71.18
16595;BME280;8410;52.532;13.336;2023-04-26T04:07:17;101001.22;;;7.55;71.12
16595;BME280;8410;52.532;13.336;2023-04-26T04:09:45;101007.41;;;6.77;73.12
16595;BME280;8410;52.532;13.336;2023-04-26T04:12:12;101007.06;;;7.51;71.12
16595;BME280;8410;52.532;13.336;2023-04-26T04:14:39;101001.72;;;8.04;70.48
16595;BME280;8410;52.532;13.336;2023-04-26T04:17:08;101003.78;;;7.26;73.12
16595;BME280;8410;52.532;13.336;2023-04-26T04:19:36;101001.00;;;7.78;70.33
16595;BME280;8410;52.532;13.336;2023-04-26T04:22:03;101003.47;;;7.74;70.29
16595;BME280;8410;52.532;13.336;2023-04-26T04:24:31;101015.50;;;7.18;73.05
16595;BME280;8410;52.532;13.336;2023-04-26T04:26:59;101015.44;;;7.45;72.57
16595;BME280;8410;52.532;13.336;2023-04-26T04:29:29;101013.53;;;7.97;71.09
16595;BME280;8410;52.532;13.336;2023-04-26T04:31:57;101002.31;;;8.58;67.98
16595;BME280;8410;52.532;13.336;2023-04-26T04:34:26;101009.09;;;8.56;68.04
16595;BME280;8410;52.532;13.336;2023-04-26T04:36:53;101013.19;;;8.48;68.41
16595;BME280;8410;52.532;13.336;2023-04-26T04:39:21;101020.25;;;7.63;70.74
16595;BME280;8410;52.532;13.336;2023-04-26T04:41:48;101016.19;;;8.33;70.39
16595;BME280;8410;52.532;13.336;2023-04-26T04:44:16;101010.31;;;8.71;67.67
16595;BME280;8410;52.532;13.336;2023-04-26T04:46:44;101024.25;;;7.84;69.01
16595;BME280;8410;52.532;13.336;2023-04-26T04:49:12;101021.53;;;8.09;70.49
16595;BME280;8410;52.532;13.336;2023-04-26T04:51:41;101018.59;;;8.59;69.64
16595;BME280;8410;52.532;13.336;2023-04-26T04:54:10;101016.94;;;8.61;69.01
16595;BME280;8410;52.532;13.336;2023-04-26T04:56:37;101016.28;;;8.70;66.75
16595;BME280;8410;52.532;13.336;2023-04-26T04:59:05;101018.81;;;9.04;66.55
16595;BME280;8410;52.532;13.336;2023-04-26T05:01:33;101030.09;;;9.11;66.84
16595;BME280;8410;52.532;13.336;2023-04-26T05:04:01;101034.00;;;8.95;67.39
16595;BME280;8410;52.532;13.336;2023-04-26T05:06:29;101028.16;;;9.40;65.52
16595;BME280;8410;52.532;13.336;2023-04-26T05:08:59;101034.66;;;9.23;65.64
16595;BME280;8410;52.532;13.336;2023-04-26T05:11:26;101031.88;;;8.79;66.32
16595;BME280;8410;52.532;13.336;2023-04-26T05:13:54;101037.50;;;9.76;64.55
16595;BME280;8410;52.532;13.336;2023-04-26T05:16:22;101035.69;;;9.31;66.27
16595;BME280;8410;52.532;13.336;2023-04-26T05:18:49;101041.81;;;8.64;67.65
16595;BME280;8410;52.532;13.336;2023-04-26T05:21:17;101042.84;;;9.07;67.45
16595;BME280;8410;52.532;13.336;2023-04-26T05:23:44;101048.53;;;8.95;67.28
16595;BME280;8410;52.532;13.336;2023-04-26T05:26:15;101043.88;;;8.78;67.21
16595;BME280;8410;52.532;13.336;2023-04-26T05:28:42;101047.69;;;10.14;64.80
16595;BME280;8410;52.532;13.336;2023-04-26T05:31:10;101057.78;;;8.53;67.55
16595;BME280;8410;52.532;13.336;2023-04-26T05:33:38;101053.19;;;9.11;68.36
16595;BME280;8410;52.532;13.336;2023-04-26T05:36:06;101055.72;;;10.78;63.43
16595;BME280;8410;52.532;13.336;2023-04-26T05:38:34;101049.25;;;12.35;59.36
16595;BME280;8410;52.532;13.336;2023-04-26T05:41:02;101038.63;;;13.02;55.90
16595;BME280;8410;52.532;13.336;2023-04-26T05:43:31;101039.06;;;13.76;52.84
16595;BME280;8410;52.532;13.336;2023-04-26T05:45:58;101047.31;;;13.12;54.40
16595;BME280;8410;52.532;13.336;2023-04-26T05:48:27;101040.94;;;14.20;54.52
16595;BME280;8410;52.532;13.336;2023-04-26T05:50:55;101051.09;;;13.68;52.70
16595;BME280;8410;52.532;13.336;2023-04-26T05:53:22;101044.38;;;14.19;52.74
16595;BME280;8410;52.532;13.336;2023-04-26T05:55:50;101053.41;;;12.23;55.44
16595;BME280;8410;52.532;13.336;2023-04-26T05:58:17;101033.19;;;14.37;53.21
16595;BME280;8410;52.532;13.336;2023-04-26T06:00:46;101036.72;;;15.08;51.44
16595;BME280;8410;52.532;13.336;2023-04-26T06:03:13;101043.28;;;13.51;52.15
16595;BME280;8410;52.532;13.336;2023-04-26T06:05:41;101066.97;;;10.34;60.26
16595;BME280;8410;52.532;13.336;2023-04-26T06:08:09;101061.28;;;11.04;59.92
16595;BME280;8410;52.532;13.336;2023-04-26T06:10:37;101071.28;;;10.35;62.24
16595;BME280;8410;52.532;13.336;2023-04-26T06:13:04;101067.84;;;10.85;60.59
16595;BME280;8410;52.532;13.336;2023-04-26T06:15:32;101071.19;;;11.36;60.19
16595;BME280;8410;52.532;13.336;2023-04-26T06:18:00;101072.25;;;12.16;58.54
16595;BME280;8410;52.532;13.336;2023-04-26T06:20:28;101072.28;;;12.19;57.47
16595;BME280;8410;52.532;13.336;2023-04-26T06:22:55;101068.22;;;11.70;58.85
16595;BME280;8410;52.532;13.336;2023-04-26T06:25:23;101085.22;;;9.63;63.23
16595;BME280;8410;52.532;13.336;2023-04-26T06:27:50;101073.66;;;10.73;62.24
16595;BME280;8410;52.532;13.336;2023-04-26T06:30:18;101082.56;;;10.00;63.30
16595;BME280;8410;52.532;13.336;2023-04-26T06:32:45;101082.22;;;9.07;66.14
16595;BME280;8410;52.532;13.336;2023-04-26T06:35:14;101093.44;;;9.11;65.71
16595;BME280;8410;52.532;13.336;2023-04-26T06:37:42;101084.91;;;9.49;66.45
16595;BME280;8410;52.532;13.336;2023-04-26T06:40:10;101087.06;;;9.31;65.55
16595;BME280;8410;52.532;13.336;2023-04-26T06:42:39;101098.63;;;8.46;68.48
16595;BME280;8410;52.532;13.336;2023-04-26T06:45:07;101094.50;;;8.51;68.42
16595;BME280;8410;52.532;13.336;2023-04-26T06:47:35;101090.66;;;9.01;67.66
16595;BME280;8410;52.532;13.336;2023-04-26T06:50:03;101087.44;;;9.87;65.09
16595;BME280;8410;52.532;13.336;2023-04-26T06:52:32;101091.22;;;10.05;63.61
16595;BME280;8410;52.532;13.336;2023-04-26T06:55:00;101090.06;;;9.51;65.09
16595;BME280;8410;52.532;13.336;2023-04-26T06:57:27;101086.63;;;9.13;66.69
16595;BME280;8410;52.532;13.336;2023-04-26T06:59:55;101087.63;;;9.97;64.45
16595;BME280;8410;52.532;13.336;2023-04-26T07:02:23;101084.47;;;9.69;65.03
16595;BME280;8410;52.532;13.336;2023-04-26T07:04:51;101086.88;;;10.02;63.75
16595;BME280;8410;52.532;13.336;2023-04-26T07:07:19;101086.16;;;10.08;63.75
16595;BME280;8410;52.532;13.336;2023-04-26T07:09:48;101088.31;;;9.48;64.52
16595;BME280;8410;52.532;13.336;2023-04-26T07:12:15;101081.47;;;10.29;63.10
16595;BME280;8410;52.532;13.336;2023-04-26T07:14:43;101096.69;;;9.79;64.46
16595;BME280;8410;52.532;13.336;2023-04-26T07:17:11;101087.16;;;10.60;62.50
16595;BME280;8410;52.532;13.336;2023-04-26T07:19:38;101089.72;;;10.58;61.25
16595;BME280;8410;52.532;13.336;2023-04-26T07:22:06;101093.63;;;10.40;62.81
16595;BME280;8410;52.532;13.336;2023-04-26T07:24:33;101094.56;;;10.01;63.02
16595;BME280;8410;52.532;13.336;2023-04-26T07:27:02;101092.31;;;10.60;63.41
16595;BME280;8410;52.532;13.336;2023-04-26T07:29:29;101099.56;;;9.93;62.85
16595;BME280;8410;52.532;13.336;2023-04-26T07:31:57;101105.56;;;9.92;63.80
16595;BME280;8410;52.532;13.336;2023-04-26T07:34:24;101103.44;;;9.74;64.26
16595;BME280;8410;52.532;13.336;2023-04-26T07:36:52;101103.56;;;9.06;65.36
16595;BME280;8410;52.532;13.336;2023-04-26T07:39:19;101106.56;;;9.23;64.83
16595;BME280;8410;52.532;13.336;2023-04-26T07:41:47;101101.22;;;9.89;63.84
16595;BME280;8410;52.532;13.336;2023-04-26T07:44:15;101104.38;;;10.63;61.88
16595;BME280;8410;52.532;13.336;2023-04-26T07:46:43;101097.84;;;10.81;61.09
16595;BME280;8410;52.532;13.336;2023-04-26T07:49:11;101093.25;;;11.17;59.39
16595;BME280;8410;52.532;13.336;2023-04-26T07:51:42;101108.63;;;10.16;61.82
16595;BME280;8410;52.532;13.336;2023-04-26T07:54:10;101109.59;;;9.43;63.05
16595;BME280;8410;52.532;13.336;2023-04-26T07:56:37;101110.44;;;10.66;60.61
16595;BME280;8410;52.532;13.336;2023-04-26T07:59:05;101108.59;;;9.36;63.33
16595;BME280;8410;52.532;13.336;2023-04-26T08:01:34;101102.22;;;10.38;61.47
16595;BME280;8410;52.532;13.336;2023-04-26T08:04:01;101109.97;;;10.40;61.27
16595;BME280;8410;52.532;13.336;2023-04-26T08:06:30;101108.50;;;11.03;60.73
16595;BME280;8410;52.532;13.336;2023-04-26T08:08:58;101113.38;;;10.88;60.21
16595;BME280;8410;52.532;13.336;2023-04-26T08:11:25;101116.81;;;10.87;59.11
16595;BME280;8410;52.532;13.336;2023-04-26T08:13:53;101119.06;;;10.24;62.24
16595;BME280;8410;52.532;13.336;2023-04-26T08:16:20;101123.50;;;10.30;62.41
16595;BME280;8410;52.532;13.336;2023-04-26T08:18:49;101116.66;;;11.29;59.78
16595;BME280;8410;52.532;13.336;2023-04-26T08:21:17;101126.19;;;10.36;60.86
16595;BME280;8410;52.532;13.336;2023-04-26T08:23:44;101124.38;;;9.91;62.14
16595;BME280;8410;52.532;13.336;2023-04-26T08:26:12;101126.78;;;10.26;60.59
16595;BME280;8410;52.532;13.336;2023-04-26T08:28:39;101124.75;;;10.08;60.72
16595;BME280;8410;52.532;13.336;2023-04-26T08:31:06;101121.34;;;10.53;59.85
16595;BME280;8410;52.532;13.336;2023-04-26T08:33:35;101125.00;;;10.64;63.33
16595;BME280;8410;52.532;13.336;2023-04-26T08:36:05;101126.88;;;9.86;66.40
16595;BME280;8410;52.532;13.336;2023-04-26T08:38:33;101133.59;;;10.66;65.72
16595;BME280;8410;52.532;13.336;2023-04-26T08:41:01;101130.53;;;10.86;63.90
16595;BME280;8410;52.532;13.336;2023-04-26T08:43:32;101126.84;;;11.81;62.19
16595;BME280;8410;52.532;13.336;2023-04-26T08:46:06;101121.03;;;11.93;64.83
16595;BME280;8410;52.532;13.336;2023-04-26T08:48:40;101118.41;;;11.91;63.16
16595;BME280;8410;52.532;13.336;2023-04-26T08:51:11;101115.41;;;11.04;61.99
16595;BME280;8410;52.532;13.336;2023-04-26T08:53:40;101117.66;;;11.40;61.97
16595;BME280;8410;52.532;13.336;2023-04-26T08:56:09;101128.06;;;10.45;61.33
16595;BME280;8410;52.532;13.336;2023-04-26T08:58:37;101129.25;;;9.79;61.65
16595;BME280;8410;52.532;13.336;2023-04-26T09:01:05;101137.97;;;9.47;63.26
16595;BME280;8410;52.532;13.336;2023-04-26T09:03:33;101128.44;;;9.43;63.53
16595;BME280;8410;52.532;13.336;2023-04-26T09:06:02;101132.47;;;10.08;62.93
16595;BME280;8410;52.532;13.336;2023-04-26T09:08:35;101140.63;;;9.50;64.18
16595;BME280;8410;52.532;13.336;2023-04-26T09:11:04;101136.19;;;9.81;61.25
16595;BME280;8410;52.532;13.336;2023-04-26T09:13:32;101138.19;;;9.57;60.72
16595;BME280;8410;52.532;13.336;2023-04-26T09:15:59;101135.69;;;9.60;60.59
16595;BME280;8410;52.532;13.336;2023-04-26T09:18:30;101134.13;;;10.06;59.65
16595;BME280;8410;52.532;13.336;2023-04-26T09:21:03;101127.22;;;10.05;59.25
16595;BME280;8410;52.532;13.336;2023-04-26T09:23:31;101129.94;;;10.11;60.20
16595;BME280;8410;52.532;13.336;2023-04-26T09:26:19;101123.41;;;9.86;60.42
16595;BME280;8410;52.532;13.336;2023-04-26T09:28:47;101122.81;;;11.39;57.87
16595;BME280;8410;52.532;13.336;2023-04-26T09:31:35;101123.44;;;10.74;58.83
16595;BME280;8410;52.532;13.336;2023-04-26T09:34:04;101125.00;;;10.64;57.78
16595;BME280;8410;52.532;13.336;2023-04-26T09:36:31;101118.66;;;10.94;56.60
16595;BME280;8410;52.532;13.336;2023-04-26T09:38:59;101119.78;;;11.10;58.04
16595;BME280;8410;52.532;13.336;2023-04-26T09:41:43;101128.28;;;10.57;56.81
16595;BME280;8410;52.532;13.336;2023-04-26T09:44:20;101121.56;;;11.72;54.70
16595;BME280;8410;52.532;13.336;2023-04-26T09:46:59;101122.13;;;12.11;55.93
16595;BME280;8410;52.532;13.336;2023-04-26T09:49:30;101105.59;;;11.96;54.29
16595;BME280;8410;52.532;13.336;2023-04-26T09:51:59;101117.91;;;11.56;53.48
16595;BME280;8410;52.532;13.336;2023-04-26T09:54:44;101118.34;;;10.75;53.51
16595;BME280;8410;52.532;13.336;2023-04-26T09:57:15;101119.53;;;10.94;54.48
16595;BME280;8410;52.532;13.336;2023-04-26T09:59:44;101118.72;;;12.16;53.17
16595;BME280;8410;52.532;13.336;2023-04-26T10:02:18;101118.41;;;11.91;53.21
16595;BME280;8410;52.532;13.336;2023-04-26T10:04:47;101126.22;;;11.38;54.29
16595;BME280;8410;52.532;13.336;2023-04-26T10:07:18;101128.63;;;11.85;52.44
16595;BME280;8410;52.532;13.336;2023-04-26T10:09:45;101126.78;;;11.20;50.91
16595;BME280;8410;52.532;13.336;2023-04-26T10:12:16;101126.38;;;10.45;51.98
16595;BME280;8410;52.532;13.336;2023-04-26T10:14:45;101125.44;;;11.42;52.61
16595;BME280;8410;52.532;13.336;2023-04-26T10:17:13;101128.75;;;10.81;52.18
16595;BME280;8410;52.532;13.336;2023-04-26T10:19:41;101139.66;;;10.24;54.34
16595;BME280;8410;52.532;13.336;2023-04-26T10:22:15;101138.13;;;9.93;55.26
16595;BME280;8410;52.532;13.336;2023-04-26T10:24:43;101138.88;;;9.87;55.69
16595;BME280;8410;52.532;13.336;2023-04-26T10:27:11;101134.63;;;9.89;56.84
16595;BME280;8410;52.532;13.336;2023-04-26T10:30:07;101154.38;;;9.90;57.48
16595;BME280;8410;52.532;13.336;2023-04-26T10:36:08;101161.06;;;9.10;62.03
16595;BME280;8410;52.532;13.336;2023-04-26T10:38:37;101156.13;;;9.19;61.65
16595;BME280;8410;52.532;13.336;2023-04-26T10:41:31;101146.19;;;10.10;59.72
16595;BME280;8410;52.532;13.336;2023-04-26T10:44:36;101140.06;;;10.43;57.44
16595;BME280;8410;52.532;13.336;2023-04-26T10:47:06;101135.94;;;10.52;57.09
16595;BME280;8410;52.532;13.336;2023-04-26T10:49:44;101129.09;;;11.03;55.35
16595;BME280;8410;52.532;13.336;2023-04-26T10:52:14;101134.47;;;11.15;54.64
16595;BME280;8410;52.532;13.336;2023-04-26T10:54:53;101138.88;;;10.72;54.32
16595;BME280;8410;52.532;13.336;2023-04-26T10:57:23;101139.19;;;11.44;54.05
16595;BME280;8410;52.532;13.336;2023-04-26T11:03:03;101145.88;;;10.79;54.43
16595;BME280;8410;52.532;13.336;2023-04-26T11:05:40;101141.50;;;10.75;54.60
16595;BME280;8410;52.532;13.336;2023-04-26T11:08:14;101133.13;;;11.39;53.88
16595;BME280;8410;52.532;13.336;2023-04-26T11:10:44;101137.44;;;11.99;51.00
16595;BME280;8410;52.532;13.336;2023-04-26T11:13:11;101130.94;;;12.32;50.84
16595;BME280;8410;52.532;13.336;2023-04-26T11:15:39;101140.25;;;12.18;50.35
16595;BME280;8410;52.532;13.336;2023-04-26T11:18:08;101132.66;;;12.30;50.51
16595;BME280;8410;52.532;13.336;2023-04-26T11:20:35;101122.59;;;12.51;51.03
16595;BME280;8410;52.532;13.336;2023-04-26T11:23:06;101126.84;;;12.51;48.98
16595;BME280;8410;52.532;13.336;2023-04-26T11:25:34;101124.22;;;11.76;50.02
16595;BME280;8410;52.532;13.336;2023-04-26T11:28:02;101133.03;;;12.64;49.71
16595;BME280;8410;52.532;13.336;2023-04-26T11:30:31;101145.94;;;11.34;51.57
16595;BME280;8410;52.532;13.336;2023-04-26T11:33:00;101141.91;;;12.12;49.53
16595;BME280;8410;52.532;13.336;2023-04-26T11:35:32;101137.47;;;12.01;50.25
16595;BME280;8410;52.532;13.336;2023-04-26T11:38:03;101137.97;;;12.42;49.18
16595;BME280;8410;52.532;13.336;2023-04-26T11:40:32;101138.91;;;11.82;51.13
16595;BME280;8410;52.532;13.336;2023-04-26T11:43:03;101136.53;;;11.38;50.85
16595;BME280;8410;52.532;13.336;2023-04-26T11:45:32;101136.38;;;11.85;50.40
16595;BME280;8410;52.532;13.336;2023-04-26T11:48:02;101139.00;;;12.61;49.75
16595;BME280;8410;52.532;13.336;2023-04-26T11:50:33;101139.81;;;11.85;49.59
16595;BME280;8410;52.532;13.336;2023-04-26T11:53:03;101143.03;;;12.33;50.48
16595;BME280;8410;52.532;13.336;2023-04-26T11:55:32;101136.81;;;12.99;48.41
16595;BME280;8410;52.532;13.336;2023-04-26T11:58:08;101145.09;;;12.65;48.21
16595;BME280;8410;52.532;13.336;2023-04-26T12:00:36;101144.66;;;11.64;49.69
16595;BME280;8410;52.532;13.336;2023-04-26T12:03:05;101147.31;;;11.68;49.52
16595;BME280;8410;52.532;13.336;2023-04-26T12:05:37;101148.34;;;11.23;50.33
16595;BME280;8410;52.532;13.336;2023-04-26T12:08:05;101149.13;;;11.76;50.40
16595;BME280;8410;52.532;13.336;2023-04-26T12:10:34;101148.50;;;11.90;48.84
16595;BME280;8410;52.532;13.336;2023-04-26T12:13:02;101153.63;;;10.81;51.45
16595;BME280;8410;52.532;13.336;2023-04-26T12:15:30;101142.28;;;11.78;51.23
16595;BME280;8410;52.532;13.336;2023-04-26T12:17:59;101146.38;;;11.63;50.34
16595;BME280;8410;52.532;13.336;2023-04-26T12:20:29;101146.78;;;11.91;49.81
16595;BME280;8410;52.532;13.336;2023-04-26T12:23:03;101143.50;;;12.76;50.07
16595;BME280;8410;52.532;13.336;2023-04-26T12:25:32;101147.00;;;12.81;50.37
16595;BME280;8410;52.532;13.336;2023-04-26T12:28:01;101153.75;;;11.97;51.73
16595;BME280;8410;52.532;13.336;2023-04-26T12:30:29;101159.34;;;11.69;52.40
16595;BME280;8410;52.532;13.336;2023-04-26T12:32:57;101152.66;;;11.84;51.95
16595;BME280;8410;52.532;13.336;2023-04-26T12:35:41;101158.59;;;12.42;51.71
16595;BME280;8410;52.532;13.336;2023-04-26T12:38:10;101164.25;;;12.09;52.31
16595;BME280;8410;52.532;13.336;2023-04-26T12:40:38;101151.13;;;12.67;51.78
16595;BME280;8410;52.532;13.336;2023-04-26T12:43:07;101149.09;;;12.36;52.57
16595;BME280;8410;52.532;13.336;2023-04-26T12:45:35;101145.69;;;13.26;50.32
16595;BME280;8410;52.532;13.336;2023-04-26T12:48:03;101141.47;;;13.37;49.77
16595;BME280;8410;52.532;13.336;2023-04-26T12:50:30;101135.66;;;13.72;49.63
16595;BME280;8410;52.532;13.336;2023-04-26T12:52:58;101144.28;;;12.72;49.05
16595;BME280;8410;52.532;13.336;2023-04-26T12:55:27;101145.25;;;12.04;49.25
16595;BME280;8410;52.532;13.336;2023-04-26T12:57:58;101145.00;;;12.58;49.96
16595;BME280;8410;52.532;13.336;2023-04-26T13:00:25;101132.72;;;13.24;49.15
16595;BME280;8410;52.532;13.336;2023-04-26T13:02:53;101130.50;;;13.78;47.15
16595;BME280;8410;52.532;13.336;2023-04-26T13:05:21;101127.25;;;14.24;46.40
16595;BME280;8410;52.532;13.336;2023-04-26T13:07:49;101137.25;;;13.55;47.33
16595;BME280;8410;52.532;13.336;2023-04-26T13:10:17;101135.38;;;13.29;46.95